Time;durP1;ratioP1;P1;durP2;ratioP2;P2;SDS_P1;SDS_P2;PMS_P1;PMS_P2;Temp;Humidity;BMP_temperature;BMP_pressure;BME280_temperature;BME280_humidity;BME280_pressure;Samples;Min_cycle;Max_cycle;Signal;HPM_P1;HPM_P2
2023/09/12 00:00:23;;;;;;;14.52;7.45;;;;;;;15.23;100.00;98228.56;4209064;28;20153;-73
2023/09/12 00:02:23;;;;;;;17.70;8.57;;;;;;;15.15;100.00;98227.84;4208575;28;20477;-73
2023/09/12 00:04:23;;;;;;;15.20;7.70;;;;;;;15.08;100.00;98225.13;4208469;28;20048;-73
2023/09/12 00:06:24;;;;;;;16.05;8.18;;;;;;;15.04;100.00;98226.34;4209107;28;20050;-73
2023/09/12 00:08:25;;;;;;;17.15;7.82;;;;;;;15.05;100.00;98225.94;4207171;28;20044;-73
2023/09/12 00:10:25;;;;;;;13.82;8.23;;;;;;;15.04;100.00;98221.56;4208513;28;20522;-73
2023/09/12 00:12:26;;;;;;;16.20;7.55;;;;;;;15.02;100.00;98224.00;4208450;28;20040;-73
2023/09/12 00:14:26;;;;;;;18.67;8.57;;;;;;;14.97;100.00;98223.63;4208557;28;20399;-73
2023/09/12 00:16:26;;;;;;;15.02;8.18;;;;;;;14.91;100.00;98223.31;4206940;28;20124;-73
2023/09/12 00:18:27;;;;;;;11.13;7.10;;;;;;;14.87;100.00;98226.13;4207684;28;20044;-73
2023/09/12 00:20:27;;;;;;;16.27;7.90;;;;;;;14.87;100.00;98217.75;4208410;28;20048;-73
2023/09/12 00:22:28;;;;;;;14.32;7.50;;;;;;;14.87;100.00;98216.97;4208234;28;20058;-73
2023/09/12 00:24:28;;;;;;;14.27;7.53;;;;;;;14.84;100.00;98215.81;4207801;28;20093;-73
2023/09/12 00:26:30;;;;;;;18.27;7.65;;;;;;;14.84;100.00;98213.03;4208838;28;20043;-73
2023/09/12 00:28:30;;;;;;;15.90;7.68;;;;;;;14.82;100.00;98209.09;4207473;28;20976;-73
2023/09/12 00:30:31;;;;;;;16.38;7.82;;;;;;;14.79;100.00;98212.69;4208113;28;20089;-73
2023/09/12 00:32:31;;;;;;;17.70;8.38;;;;;;;14.80;100.00;98200.31;4208263;28;20392;-73
2023/09/12 00:34:31;;;;;;;15.07;7.90;;;;;;;14.74;100.00;98197.22;4208496;28;20076;-73
2023/09/12 00:36:32;;;;;;;13.90;8.13;;;;;;;14.74;100.00;98205.56;4206784;28;20566;-73
2023/09/12 00:38:33;;;;;;;17.20;8.75;;;;;;;14.71;100.00;98205.59;4206858;28;20055;-73
2023/09/12 00:40:33;;;;;;;14.40;8.13;;;;;;;14.61;100.00;98205.28;4208194;28;20087;-73
2023/09/12 00:42:34;;;;;;;15.30;8.00;;;;;;;14.53;100.00;98200.19;4207588;28;20040;-73
2023/09/12 00:44:34;;;;;;;18.35;8.52;;;;;;;14.52;100.00;98207.75;4208136;28;20072;-73
2023/09/12 00:46:36;;;;;;;17.05;8.23;;;;;;;14.49;100.00;98202.22;4208142;28;20515;-73
2023/09/12 00:48:38;;;;;;;14.55;7.80;;;;;;;14.47;100.00;98208.19;4207208;28;20628;-73
2023/09/12 00:50:40;;;;;;;12.27;8.50;;;;;;;14.42;100.00;98208.59;4203519;28;20390;-73
2023/09/12 00:52:42;;;;;;;15.77;8.55;;;;;;;14.43;100.00;98204.63;4207591;28;20131;-73
2023/09/12 00:54:42;;;;;;;18.08;8.63;;;;;;;14.43;100.00;98199.06;4207623;28;20051;-73
2023/09/12 00:56:42;;;;;;;14.50;7.82;;;;;;;14.43;100.00;98199.06;4207563;28;20047;-73
2023/09/12 00:58:43;;;;;;;13.07;7.05;;;;;;;14.45;100.00;98204.19;4207300;28;20044;-73
2023/09/12 01:00:43;;;;;;;12.73;7.50;;;;;;;14.42;100.00;98202.25;4207050;28;20491;-73
2023/09/12 01:02:46;;;;;;;17.13;8.20;;;;;;;14.37;100.00;98208.25;4207714;28;20040;-73
2023/09/12 01:04:47;;;;;;;16.60;8.35;;;;;;;14.33;100.00;98209.06;4207517;28;20048;-73
2023/09/12 01:06:48;;;;;;;12.48;7.57;;;;;;;14.33;100.00;98203.50;4207165;28;20186;-73
2023/09/12 01:08:48;;;;;;;11.63;7.47;;;;;;;14.36;100.00;98195.53;4205014;28;20484;-73
2023/09/12 01:10:49;;;;;;;10.30;7.55;;;;;;;14.35;100.00;98205.88;4207439;28;20067;-73
2023/09/12 01:12:50;;;;;;;16.33;8.00;;;;;;;14.28;100.00;98206.72;4207359;28;20047;-73
2023/09/12 01:14:50;;;;;;;16.27;7.80;;;;;;;14.27;100.00;98209.91;4207142;28;20047;-73
2023/09/12 01:16:51;;;;;;;19.17;8.38;;;;;;;14.25;100.00;98210.31;4207787;28;20576;-73
2023/09/12 01:18:51;;;;;;;12.98;7.80;;;;;;;14.26;100.00;98205.56;4206426;28;20106;-73
2023/09/12 01:21:25;;;;;;;15.13;7.32;;;;;;;14.30;100.00;98211.88;4206816;28;20130;-73
2023/09/12 01:23:38;;;;;;;10.27;6.53;;;;;;;14.28;100.00;98205.94;4206805;28;20524;-73
2023/09/12 01:26:05;;;;;;;15.20;8.10;;;;;;;14.28;100.00;98206.72;4207305;28;20066;-73
2023/09/12 01:28:09;;;;;;;14.65;6.70;;;;;;;14.24;100.00;98199.63;4205723;28;20109;-73
2023/09/12 01:30:10;;;;;;;12.52;7.95;;;;;;;14.18;100.00;98196.47;4206617;28;20039;-73
2023/09/12 01:32:11;;;;;;;13.68;8.15;;;;;;;14.19;100.00;98197.25;4206830;28;20208;-73
2023/09/12 01:34:12;;;;;;;14.80;7.43;;;;;;;14.16;100.00;98192.53;4206919;28;20067;-73
2023/09/12 01:36:13;;;;;;;10.73;6.85;;;;;;;14.15;100.00;98188.13;4206911;28;20032;-73
2023/09/12 01:38:14;;;;;;;10.65;7.30;;;;;;;14.18;100.00;98187.34;4204862;28;20165;-73
2023/09/12 01:40:16;;;;;;;16.65;7.57;;;;;;;14.18;100.00;98190.13;4205714;28;20066;-73
2023/09/12 01:42:18;;;;;;;;;;;;;;;14.20;100.00;98196.06;4207477;28;20118;-73
2023/09/12 01:44:22;;;;;;;17.13;7.40;;;;;;;14.15;100.00;98194.50;4207053;28;19916;-73
2023/09/12 01:46:25;;;;;;;12.52;7.07;;;;;;;14.11;100.00;98196.50;4206900;28;20297;-73
2023/09/12 01:48:30;;;;;;;;;;;;;;;14.05;100.00;98198.94;4206645;28;20178;-73
2023/09/12 01:50:31;;;;;;;11.43;6.78;;;;;;;14.02;100.00;98196.19;4205976;28;20862;-73
2023/09/12 01:52:32;;;;;;;13.27;7.53;;;;;;;14.01;100.00;98192.63;4206054;28;20051;-73
2023/09/12 01:54:34;;;;;;;17.50;7.82;;;;;;;14.00;100.00;98193.81;4206348;28;20036;-73
2023/09/12 01:56:35;;;;;;;16.95;8.30;;;;;;;13.97;100.00;98188.25;4206381;28;20071;-72
2023/09/12 01:58:36;;;;;;;12.68;7.00;;;;;;;13.94;100.00;98191.88;4204893;28;20111;-73
2023/09/12 02:00:38;;;;;;;13.20;7.50;;;;;;;13.90;100.00;98191.91;4206012;28;20132;-73
2023/09/12 02:02:38;;;;;;;16.38;7.95;;;;;;;13.89;100.00;98195.84;4206513;28;20548;-73
2023/09/12 02:04:39;;;;;;;14.80;7.70;;;;;;;13.85;100.00;98195.09;4205709;28;20216;-73
2023/09/12 02:06:39;;;;;;;13.05;7.43;;;;;;;13.79;100.00;98188.38;4206413;28;20047;-73
2023/09/12 02:08:39;;;;;;;13.10;7.43;;;;;;;13.75;100.00;98188.41;4206111;28;20295;-73
2023/09/12 02:10:39;;;;;;;16.50;8.25;;;;;;;13.69;100.00;98189.22;4204699;28;20040;-73
2023/09/12 02:12:40;;;;;;;16.00;7.72;;;;;;;13.64;100.00;98190.44;4206120;28;20097;-73
2023/09/12 02:14:40;;;;;;;13.07;7.50;;;;;;;13.60;100.00;98188.88;4206105;28;20052;-73
2023/09/12 02:16:41;;;;;;;12.70;7.78;;;;;;;13.57;100.00;98195.25;4206112;28;20455;-73
2023/09/12 02:18:41;;;;;;;17.35;7.93;;;;;;;13.58;100.00;98188.50;4204252;28;20051;-73
2023/09/12 02:20:45;;;;;;;22.27;9.27;;;;;;;13.58;100.00;98188.50;4204217;28;20143;-73
2023/09/12 02:22:45;;;;;;;13.38;7.43;;;;;;;13.58;100.00;98188.50;4205866;28;20632;-73
2023/09/12 02:24:46;;;;;;;15.18;8.35;;;;;;;13.61;100.00;98188.47;4205832;28;20051;-73
2023/09/12 02:26:46;;;;;;;16.08;8.13;;;;;;;13.63;100.00;98186.06;4206324;28;20154;-73
2023/09/12 02:28:47;;;;;;;14.45;7.50;;;;;;;13.66;100.00;98178.94;4204816;28;20102;-73
2023/09/12 02:30:47;;;;;;;12.43;7.32;;;;;;;13.67;100.00;98183.28;4206133;28;20097;-73
2023/09/12 02:32:47;;;;;;;12.82;8.57;;;;;;;13.65;100.00;98182.88;4206136;28;20083;-73
2023/09/12 02:34:48;;;;;;;15.38;7.38;;;;;;;13.61;100.00;98179.34;4205538;28;20076;-73
2023/09/12 02:36:48;;;;;;;11.50;6.82;;;;;;;13.58;100.00;98180.16;4204687;28;20044;-73
2023/09/12 02:38:48;;;;;;;19.75;7.78;;;;;;;13.54;100.00;98177.41;4205018;28;20043;-73
2023/09/12 02:40:49;;;;;;;18.75;7.70;;;;;;;13.54;100.00;98179.38;4205789;28;20055;-73
2023/09/12 02:42:49;;;;;;;15.20;7.57;;;;;;;13.51;100.00;98177.44;4206241;28;20062;-73
2023/09/12 02:44:49;;;;;;;11.50;7.68;;;;;;;13.49;100.00;98178.63;4205834;28;20547;-73
2023/09/12 02:46:51;;;;;;;12.63;7.63;;;;;;;13.51;100.00;98183.78;4205788;28;20276;-73
2023/09/12 02:48:51;;;;;;;12.40;7.43;;;;;;;13.51;100.00;98182.97;4204348;28;20310;-73
2023/09/12 02:50:51;;;;;;;12.68;7.80;;;;;;;13.48;100.00;98185.34;4204661;28;20071;-73
2023/09/12 02:52:51;;;;;;;14.27;7.90;;;;;;;13.46;100.00;98179.41;4203557;28;20096;-73
2023/09/12 02:54:52;;;;;;;12.93;7.75;;;;;;;13.47;100.00;98182.97;4206026;28;20140;-73
2023/09/12 02:56:52;;;;;;;12.25;7.35;;;;;;;13.44;100.00;98176.25;4206746;28;20075;-73
2023/09/12 02:58:53;;;;;;;11.90;7.53;;;;;;;13.46;100.00;98182.19;4202299;28;20052;-73
2023/09/12 03:00:54;;;;;;;19.25;8.32;;;;;;;13.41;100.00;98181.84;4203862;28;20094;-73
2023/09/12 03:02:54;;;;;;;15.80;8.38;;;;;;;13.38;100.00;98172.31;4205362;28;20196;-73
2023/09/12 03:04:55;;;;;;;16.60;8.45;;;;;;;13.25;100.00;98179.53;4205575;28;20490;-73
2023/09/12 03:06:55;;;;;;;15.85;7.60;;;;;;;13.19;100.00;98179.16;4205710;28;20052;-73
2023/09/12 03:14:49;;;;;;;15.32;7.43;;;;;;;13.17;100.00;98177.94;4207420;28;20128;-73
2023/09/12 03:16:49;;;;;;;17.08;7.57;;;;;;;13.16;100.00;98179.13;4208276;28;20569;-73
2023/09/12 03:18:50;;;;;;;10.60;7.78;;;;;;;13.12;100.00;98165.25;4207897;28;20505;-73
2023/09/12 03:20:50;;;;;;;13.73;8.43;;;;;;;13.16;100.00;98154.94;4209377;28;20410;-73
2023/09/12 03:22:50;;;;;;;13.23;7.93;;;;;;;13.22;100.00;98160.88;4208979;28;20068;-73
2023/09/12 03:24:50;;;;;;;11.55;7.50;;;;;;;13.24;100.00;98157.69;4208476;28;20556;-73
2023/09/12 03:26:51;;;;;;;14.40;7.75;;;;;;;13.21;100.00;98153.72;4209129;28;20110;-73
2023/09/12 03:28:52;;;;;;;10.73;7.07;;;;;;;13.19;100.00;98165.25;4208173;28;20036;-73
2023/09/12 03:30:52;;;;;;;11.68;7.72;;;;;;;13.08;100.00;98175.59;4208648;28;20392;-73
2023/09/12 03:32:52;;;;;;;16.40;8.52;;;;;;;13.07;100.00;98167.63;4208848;28;20052;-73
2023/09/12 03:34:53;;;;;;;12.15;7.55;;;;;;;13.04;100.00;98162.91;4208975;28;20433;-73
2023/09/12 03:36:53;;;;;;;11.05;7.07;;;;;;;13.00;100.00;98168.47;4207715;28;20049;-73
2023/09/12 03:38:53;;;;;;;14.05;7.50;;;;;;;12.99;100.00;98161.34;4207893;28;20046;-73
2023/09/12 03:40:54;;;;;;;22.38;8.63;;;;;;;13.03;100.00;98164.88;4208472;28;20075;-73
2023/09/12 03:42:54;;;;;;;17.88;8.32;;;;;;;13.04;100.00;98163.69;4208836;28;20123;-73
2023/09/12 03:44:55;;;;;;;15.52;8.27;;;;;;;13.02;100.00;98156.97;4208751;28;20457;-73
2023/09/12 03:46:55;;;;;;;17.05;7.95;;;;;;;13.04;100.00;98165.69;4206577;28;20418;-73
2023/09/12 03:48:55;;;;;;;11.82;7.72;;;;;;;13.02;100.00;98156.97;4207026;28;20044;-73
2023/09/12 03:50:56;;;;;;;13.63;7.95;;;;;;;13.01;100.00;98156.16;4207587;28;20040;-73
2023/09/12 03:52:56;;;;;;;20.63;9.00;;;;;;;13.01;100.00;98160.94;4208185;28;20047;-73
2023/09/12 03:54:56;;;;;;;17.42;7.25;;;;;;;12.97;100.00;98158.16;4207951;28;20069;-73
2023/09/12 03:56:57;;;;;;;19.95;8.93;;;;;;;12.94;100.00;98162.53;4208195;28;20051;-73
2023/09/12 03:58:59;;;;;;;19.75;7.90;;;;;;;12.98;100.00;98167.28;4205829;28;20058;-73
2023/09/12 04:01:00;;;;;;;9.85;7.93;;;;;;;12.98;100.00;98175.59;4207286;28;20134;-73
2023/09/12 04:03:00;;;;;;;14.48;8.00;;;;;;;12.97;100.00;98166.47;4208248;28;20154;-73
2023/09/12 04:05:00;;;;;;;13.23;7.03;;;;;;;12.94;100.00;98170.06;4207871;28;20051;-73
2023/09/12 04:07:01;;;;;;;14.65;8.40;;;;;;;13.01;100.00;98166.50;4208024;28;20054;-73
2023/09/12 04:09:01;;;;;;;14.45;7.75;;;;;;;12.96;100.00;98170.47;4207067;28;20499;-73
2023/09/12 04:11:02;;;;;;;13.93;7.90;;;;;;;12.89;100.00;98174.03;4206390;28;20056;-73
2023/09/12 04:13:02;;;;;;;13.90;8.45;;;;;;;12.85;100.00;98170.50;4208152;28;20055;-73
2023/09/12 04:15:03;;;;;;;13.98;8.00;;;;;;;12.83;100.00;98172.88;4208159;28;20060;-73
2023/09/12 04:17:04;;;;;;;15.75;8.68;;;;;;;12.82;100.00;98164.94;4207408;28;20056;-73
2023/09/12 04:19:04;;;;;;;16.25;8.23;;;;;;;12.78;100.00;98170.50;4207176;28;20055;-73
2023/09/12 04:21:04;;;;;;;22.55;9.27;;;;;;;12.77;100.00;98173.69;4205909;28;20056;-73
2023/09/12 04:23:05;;;;;;;25.98;9.55;;;;;;;12.77;100.00;98182.81;4207128;28;20090;-73
2023/09/12 04:25:05;;;;;;;15.25;8.90;;;;;;;12.76;100.00;98180.44;4206788;28;20685;-73
2023/09/12 04:27:06;;;;;;;13.63;8.15;;;;;;;12.78;100.00;98191.91;4207511;28;20044;-73
2023/09/12 04:29:06;;;;;;;15.75;9.10;;;;;;;12.80;100.00;98179.22;4206728;28;20392;-73
2023/09/12 04:31:07;;;;;;;15.55;8.18;;;;;;;12.82;100.00;98184.38;4206438;28;20052;-73
2023/09/12 04:33:07;;;;;;;15.43;8.43;;;;;;;12.76;100.00;98186.00;4207698;28;20354;-73
2023/09/12 04:35:08;;;;;;;14.98;8.80;;;;;;;12.74;100.00;98188.34;4207456;28;20052;-73
2023/09/12 04:37:08;;;;;;;16.58;8.02;;;;;;;12.69;100.00;98177.66;4205350;28;20135;-73
2023/09/12 04:39:08;;;;;;;22.92;8.82;;;;;;;12.69;100.00;98174.91;4206697;28;20052;-73
2023/09/12 04:41:15;;;;;;;15.45;8.80;;;;;;;12.76;100.00;98174.88;4207798;28;20157;-73
2023/09/12 04:43:15;;;;;;;20.63;9.00;;;;;;;12.74;100.00;98166.94;4206604;28;20044;-73
2023/09/12 04:45:15;;;;;;;15.43;8.73;;;;;;;12.69;100.00;98170.13;4207232;28;20391;-73
2023/09/12 04:47:16;;;;;;;17.63;8.18;;;;;;;12.75;100.00;98173.31;4206944;28;20119;-73
2023/09/12 04:49:16;;;;;;;15.13;8.35;;;;;;;12.78;100.00;98175.28;4206736;28;20075;-73
2023/09/12 04:51:17;;;;;;;16.17;8.10;;;;;;;12.80;100.00;98172.88;4207350;28;20043;-73
2023/09/12 04:53:17;;;;;;;15.90;9.23;;;;;;;12.87;100.00;98167.31;4206494;28;20043;-73
2023/09/12 04:55:17;;;;;;;17.92;9.65;;;;;;;12.89;100.00;98179.59;4207232;28;20958;-73
2023/09/12 04:57:18;;;;;;;15.02;8.43;;;;;;;12.86;100.00;98177.63;4207298;28;20158;-73
2023/09/12 04:59:18;;;;;;;20.52;10.00;;;;;;;12.81;100.00;98180.81;4204416;28;20083;-73
2023/09/12 05:01:19;;;;;;;24.70;9.60;;;;;;;12.82;100.00;98187.13;4203835;28;20070;-73
2023/09/12 05:03:19;;;;;;;16.02;8.10;;;;;;;12.80;100.00;98184.78;4207370;28;20150;-73
2023/09/12 05:05:20;;;;;;;14.98;8.57;;;;;;;12.77;100.00;98170.91;4201359;28;20052;-73
2023/09/12 05:07:20;;;;;;;16.85;8.23;;;;;;;12.77;100.00;98188.34;4203460;28;20712;-73
2023/09/12 05:09:20;;;;;;;21.50;8.18;;;;;;;12.77;100.00;98179.25;4201786;28;20794;-73
2023/09/12 05:11:24;;;;;;;18.40;8.25;;;;;;;12.77;100.00;98185.59;4202542;28;20047;-73
2023/09/12 05:13:24;;;;;;;22.48;8.35;;;;;;;12.77;100.00;98176.47;4201702;28;20047;-73
2023/09/12 05:15:25;;;;;;;19.42;8.50;;;;;;;12.76;100.00;98186.78;4205052;28;20476;-73
2023/09/12 05:17:25;;;;;;;13.57;7.82;;;;;;;12.77;100.00;98182.03;4203940;28;20056;-73
2023/09/12 05:19:26;;;;;;;14.80;8.20;;;;;;;12.73;100.00;98189.53;4204021;28;20464;-73
2023/09/12 05:21:26;;;;;;;11.98;7.75;;;;;;;12.75;100.00;98187.19;4206587;28;20092;-73
2023/09/12 05:23:28;;;;;;;17.70;8.60;;;;;;;12.73;100.00;98200.66;4207383;28;20056;-73
2023/09/12 05:25:28;;;;;;;12.15;7.90;;;;;;;12.71;100.00;98192.72;4206774;28;20067;-73
2023/09/12 05:27:28;;;;;;;16.58;7.90;;;;;;;12.72;100.00;98197.09;4206859;28;20040;-73
2023/09/12 05:29:29;;;;;;;16.52;7.88;;;;;;;12.77;100.00;98207.00;4206874;28;20080;-72
2023/09/12 05:31:29;;;;;;;12.98;8.50;;;;;;;12.77;100.00;98201.44;4207334;28;20744;-73
2023/09/12 05:33:29;;;;;;;12.48;7.80;;;;;;;12.81;100.00;98207.78;4206127;28;20568;-73
2023/09/12 05:35:30;;;;;;;13.38;7.68;;;;;;;12.83;100.00;98208.97;4207004;28;20492;-73
2023/09/12 05:37:30;;;;;;;13.75;8.13;;;;;;;12.88;100.00;98211.31;4206807;28;20044;-73
2023/09/12 05:39:30;;;;;;;14.30;7.97;;;;;;;12.96;100.00;98214.88;4205575;28;20101;-73
2023/09/12 05:41:31;;;;;;;14.75;8.15;;;;;;;13.02;100.00;98204.97;4206928;28;20051;-73
2023/09/12 05:43:31;;;;;;;13.38;7.15;;;;;;;13.03;100.00;98202.97;4207008;28;20076;-73
2023/09/12 05:45:32;;;;;;;16.65;8.27;;;;;;;13.07;100.00;98212.06;4206652;28;20616;-73
2023/09/12 05:47:32;;;;;;;15.77;7.75;;;;;;;13.12;100.00;98208.91;4206448;28;20074;-73
2023/09/12 05:49:34;;;;;;;15.13;8.25;;;;;;;13.15;100.00;98211.66;4207137;28;20088;-73
2023/09/12 05:51:34;;;;;;;17.73;8.55;;;;;;;13.18;100.00;98213.66;4203200;28;20043;-73
2023/09/12 05:53:34;;;;;;;16.92;8.27;;;;;;;13.22;100.00;98213.66;4205441;28;20043;-73
2023/09/12 05:55:35;;;;;;;19.38;9.00;;;;;;;13.24;100.00;98221.56;4206546;28;20070;-73
2023/09/12 05:57:35;;;;;;;12.75;8.32;;;;;;;13.28;100.00;98219.59;4205647;28;20097;-73
2023/09/12 05:59:37;;;;;;;17.98;9.02;;;;;;;13.32;100.00;98229.50;4205995;28;20047;-73
2023/09/12 06:01:37;;;;;;;16.45;7.60;;;;;;;13.36;100.00;98216.38;4206205;28;20059;-73
2023/09/12 06:03:38;;;;;;;15.30;9.18;;;;;;;13.41;100.00;98218.75;4206709;28;20070;-73
2023/09/12 06:05:38;;;;;;;20.10;9.05;;;;;;;13.48;100.00;98217.91;4206639;28;20044;-73
2023/09/12 06:07:40;;;;;;;16.17;9.73;;;;;;;13.56;100.00;98216.69;4204834;28;20032;-73
2023/09/12 06:09:40;;;;;;;16.08;8.95;;;;;;;13.61;100.00;98219.06;4205251;28;20046;-73
2023/09/12 06:11:41;;;;;;;15.88;9.15;;;;;;;13.67;100.00;98227.78;4206564;28;20123;-73
2023/09/12 06:13:41;;;;;;;21.70;10.75;;;;;;;13.72;100.00;98221.78;4206558;28;20048;-73
2023/09/12 06:15:41;;;;;;;13.45;8.70;;;;;;;13.76;100.00;98225.34;4204574;28;20127;-73
2023/09/12 06:17:42;;;;;;;23.88;9.77;;;;;;;13.79;100.00;98216.19;4205130;28;20201;-73
2023/09/12 06:19:42;;;;;;;15.02;9.98;;;;;;;13.85;100.00;98224.91;4206507;28;20044;-73
2023/09/12 06:21:43;;;;;;;18.00;8.88;;;;;;;13.90;100.00;98224.44;4206845;28;20127;-73
2023/09/12 06:23:43;;;;;;;17.90;9.73;;;;;;;13.97;100.00;98232.75;4206723;28;20044;-73
2023/09/12 06:25:43;;;;;;;16.30;9.07;;;;;;;14.04;100.00;98230.72;4206602;28;20048;-73
2023/09/12 06:27:44;;;;;;;16.13;9.15;;;;;;;14.08;100.00;98218.81;4205448;28;20067;-73
2023/09/12 06:29:48;;;;;;;16.98;8.75;;;;;;;14.16;100.00;98231.47;4206609;28;20434;-73
2023/09/12 06:31:48;;;;;;;17.67;8.27;;;;;;;14.24;100.00;98227.44;4206834;28;20044;-73
2023/09/12 06:33:48;;;;;;;14.68;7.75;;;;;;;14.31;100.00;98232.94;4206383;28;20050;-73
2023/09/12 06:35:50;;;;;;;15.70;8.88;;;;;;;14.40;100.00;98229.69;4206513;28;20044;-73
2023/09/12 06:37:50;;;;;;;19.98;9.52;;;;;;;14.50;100.00;98231.63;4205925;28;20441;-73
2023/09/12 06:39:51;;;;;;;19.92;9.93;;;;;;;14.59;100.00;98234.75;4206375;28;20086;-73
2023/09/12 06:41:51;;;;;;;25.52;11.07;;;;;;;14.69;100.00;98225.50;4206092;28;20039;-73
2023/09/12 06:43:52;;;;;;;20.60;9.65;;;;;;;14.74;100.00;98227.06;4206836;28;20147;-73
2023/09/12 06:45:52;;;;;;;16.33;9.55;;;;;;;14.83;100.00;98235.72;4209743;28;20339;-73
2023/09/12 06:47:52;;;;;;;21.38;10.95;;;;;;;14.89;100.00;98228.47;4208744;28;20047;-73
2023/09/12 06:49:53;;;;;;;20.67;11.70;;;;;;;14.96;100.00;98230.41;4209262;28;20043;-73
2023/09/12 06:51:53;;;;;;;17.83;10.15;;;;;;;15.05;100.00;98239.06;4208676;28;20052;-73
2023/09/12 06:53:54;;;;;;;16.42;10.10;;;;;;;15.12;100.00;98247.38;4208731;28;20054;-73
2023/09/12 06:55:57;;;;;;;23.85;10.63;;;;;;;15.21;100.00;98244.88;4208357;28;20040;-73
2023/09/12 06:57:57;;;;;;;15.13;10.35;;;;;;;15.27;100.00;98240.44;4205777;28;20435;-73
2023/09/12 06:59:58;;;;;;;17.23;9.35;;;;;;;15.32;100.00;98239.22;4208697;28;20044;-73
2023/09/12 07:01:58;;;;;;;17.42;10.00;;;;;;;15.39;100.00;98239.09;4208738;28;20044;-73
2023/09/12 07:03:59;;;;;;;17.80;9.57;;;;;;;15.45;100.00;98245.81;4205841;28;20055;-73
2023/09/12 07:05:59;;;;;;;16.70;9.23;;;;;;;15.48;100.00;98244.22;4203470;28;20105;-73
2023/09/12 07:08:00;;;;;;;17.27;10.20;;;;;;;15.55;100.00;98238.50;4205355;28;20075;-73
2023/09/12 07:10:00;;;;;;;18.80;9.65;;;;;;;15.65;100.00;98251.59;4205572;28;20055;-73
2023/09/12 07:12:01;;;;;;;20.70;11.27;;;;;;;15.75;100.00;98245.09;4208241;28;20056;-73
2023/09/12 07:14:03;;;;;;;17.58;10.48;;;;;;;15.82;100.00;98236.63;4208539;28;20059;-73
2023/09/12 07:16:04;;;;;;;19.67;11.60;;;;;;;15.90;100.00;98235.31;4207634;28;20036;-73
2023/09/12 07:18:06;;;;;;;22.42;10.93;;;;;;;15.98;100.00;98244.38;4203524;28;20032;-74
2023/09/12 07:20:11;;;;;;;19.23;10.25;;;;;;;16.06;100.00;98245.88;4206167;28;20530;-73
2023/09/12 07:22:11;;;;;;;18.30;10.40;;;;;;;16.12;100.00;98237.78;4206986;28;20349;-73
2023/09/12 07:24:12;;;;;;;17.33;10.43;;;;;;;16.21;100.00;98235.25;4207710;28;20116;-73
2023/09/12 07:26:16;;;;;;;21.98;10.65;;;;;;;16.29;100.00;98233.94;4208409;28;20073;-73
2023/09/12 07:28:18;;;;;;;27.83;10.40;;;;;;;16.39;100.00;98223.84;4207365;28;20036;-73
2023/09/12 07:30:19;;;;;;;17.90;9.65;;;;;;;16.49;100.00;98229.25;4208742;28;20329;-73
2023/09/12 07:32:21;;;;;;;14.30;9.18;;;;;;;16.62;100.00;98226.63;4208196;28;20036;-73
2023/09/12 07:34:21;;;;;;;21.40;10.10;;;;;;;16.73;100.00;98224.50;4207790;28;20164;-73
2023/09/12 07:36:22;;;;;;;22.52;9.73;;;;;;;16.88;100.00;98239.00;4207425;28;20285;-73
2023/09/12 07:38:22;;;;;;;18.13;10.25;;;;;;;16.99;100.00;98231.22;4207954;28;20048;-73
2023/09/12 07:40:22;;;;;;;22.95;11.18;;;;;;;17.09;100.00;98237.81;4207906;28;20422;-73
2023/09/12 07:42:23;;;;;;;21.95;11.23;;;;;;;17.19;100.00;98245.22;4208375;28;20094;-73
2023/09/12 07:44:24;;;;;;;25.13;12.95;;;;;;;17.27;100.00;98241.06;4208369;28;20124;-73
2023/09/12 07:46:24;;;;;;;21.65;11.65;;;;;;;17.44;100.00;98243.94;4207856;28;20048;-73
2023/09/12 07:48:24;;;;;;;26.65;12.23;;;;;;;17.55;100.00;98239.75;4207024;28;20511;-73
2023/09/12 07:50:25;;;;;;;22.15;12.75;;;;;;;17.72;100.00;98239.84;4205496;28;20465;-73
2023/09/12 07:52:25;;;;;;;26.80;12.10;;;;;;;17.89;100.00;98236.66;4207774;28;20048;-73
2023/09/12 07:54:26;;;;;;;22.50;11.60;;;;;;;18.08;100.00;98242.63;4208685;28;20052;-73
2023/09/12 07:56:26;;;;;;;17.70;10.70;;;;;;;18.21;100.00;98240.75;4207549;28;20044;-73
2023/09/12 07:58:26;;;;;;;19.00;11.18;;;;;;;18.32;100.00;98241.28;4207829;28;20063;-73
2023/09/12 08:00:27;;;;;;;22.30;12.15;;;;;;;18.46;100.00;98245.78;4208603;28;20043;-73
2023/09/12 08:02:27;;;;;;;19.10;11.45;;;;;;;18.53;100.00;98239.97;4208248;28;20059;-73
2023/09/12 08:04:27;;;;;;;25.33;11.73;;;;;;;18.62;100.00;98247.78;4208963;28;20161;-74
2023/09/12 08:06:28;;;;;;;25.35;11.30;;;;;;;18.75;100.00;98245.88;4207280;28;20044;-73
2023/09/12 08:08:29;;;;;;;21.55;10.55;;;;;;;18.82;100.00;98250.53;4206354;28;20131;-73
2023/09/12 08:10:29;;;;;;;19.70;11.48;;;;;;;18.96;100.00;98252.97;4208601;28;20184;-73
2023/09/12 08:12:30;;;;;;;23.92;10.93;;;;;;;19.03;100.00;98255.56;4207570;28;20047;-73
2023/09/12 08:14:30;;;;;;;22.65;10.23;;;;;;;19.08;100.00;98250.22;4207930;28;20044;-73
2023/09/12 08:16:31;;;;;;;19.42;10.15;;;;;;;19.26;100.00;98255.34;4208308;28;20398;-73
2023/09/12 08:18:32;;;;;;;17.02;10.38;;;;;;;19.39;100.00;98249.03;4206449;28;20537;-73
2023/09/12 08:20:32;;;;;;;21.67;11.00;;;;;;;19.44;100.00;98243.66;4208211;28;20105;-74
2023/09/12 08:22:32;;;;;;;19.70;10.77;;;;;;;19.54;100.00;98247.41;4205764;28;20451;-73
2023/09/12 08:24:33;;;;;;;18.45;10.00;;;;;;;19.62;100.00;98246.00;4208294;28;20085;-73
2023/09/12 08:26:34;;;;;;;16.60;9.02;;;;;;;19.76;100.00;98239.19;4208100;28;20131;-74
2023/09/12 08:28:34;;;;;;;19.65;8.90;;;;;;;19.94;100.00;98242.25;4205400;28;20036;-73
2023/09/12 08:30:35;;;;;;;16.90;8.65;;;;;;;20.06;100.00;98244.28;4207793;28;20112;-73
2023/09/12 08:32:35;;;;;;;26.13;11.05;;;;;;;20.16;100.00;98243.16;4207971;28;20044;-73
2023/09/12 08:34:36;;;;;;;15.27;8.40;;;;;;;20.25;100.00;98230.47;4207973;28;20793;-74
2023/09/12 08:36:36;;;;;;;17.45;8.02;;;;;;;20.32;100.00;98228.25;4207731;28;20040;-73
2023/09/12 08:38:36;;;;;;;21.48;8.98;;;;;;;20.38;100.00;98225.66;4206941;28;20044;-74
2023/09/12 08:40:37;;;;;;;17.70;8.73;;;;;;;20.43;100.00;98231.50;4207687;28;20974;-73
2023/09/12 08:42:40;;;;;;;18.88;10.10;;;;;;;20.50;100.00;98230.50;4207163;28;20052;-74
2023/09/12 08:44:41;;;;;;;23.15;8.60;;;;;;;20.57;100.00;98223.88;4206726;28;20070;-74
2023/09/12 08:46:42;;;;;;;15.63;7.87;;;;;;;20.71;100.00;98229.81;4207594;28;20182;-74
2023/09/12 08:48:45;;;;;;;17.42;8.60;;;;;;;20.87;100.00;98239.34;4206269;28;20538;-73
2023/09/12 08:50:49;;;;;;;17.60;8.60;;;;;;;21.00;100.00;98234.47;4206350;28;20052;-73
2023/09/12 08:52:49;;;;;;;18.35;8.43;;;;;;;21.10;100.00;98226.88;4206953;28;20036;-73
2023/09/12 08:54:49;;;;;;;13.75;7.78;;;;;;;21.21;100.00;98225.28;4207996;28;20464;-74
2023/09/12 08:56:50;;;;;;;15.93;6.90;;;;;;;21.29;100.00;98232.28;4207506;28;20531;-73
2023/09/12 08:58:51;;;;;;;13.80;7.93;;;;;;;21.40;100.00;98222.66;4204476;28;20062;-74
2023/09/12 09:00:51;;;;;;;18.08;8.25;;;;;;;21.54;100.00;98211.66;4207727;28;20044;-74
2023/09/12 09:02:52;;;;;;;14.63;8.00;;;;;;;21.71;100.00;98206.63;4207403;28;20044;-74
2023/09/12 09:04:55;;;;;;;18.55;8.55;;;;;;;21.90;100.00;98207.50;4207955;28;20059;-74
2023/09/12 09:06:57;;;;;;;;;;;;;;;22.07;100.00;98205.25;4206068;28;20051;-74
2023/09/12 09:08:59;;;;;;;21.98;8.85;;;;;;;22.25;100.00;98201.75;4206476;28;20180;-74
2023/09/12 09:11:05;;;;;;;14.90;8.75;;;;;;;22.40;100.00;98197.88;4207198;28;20050;-74
2023/09/12 09:13:06;;;;;;;20.30;8.60;;;;;;;22.54;100.00;98204.22;4206820;28;20059;-74
2023/09/12 09:15:28;;;;;;;16.38;8.35;;;;;;;22.58;100.00;98207.66;4204651;28;20051;-73
2023/09/12 09:17:32;;;;;;;17.98;9.10;;;;;;;22.58;100.00;98214.06;4206256;28;20052;-73
2023/09/12 09:19:42;;;;;;;18.42;8.25;;;;;;;22.60;100.00;98222.88;4204938;28;20051;-73
2023/09/12 09:21:43;;;;;;;13.88;8.25;;;;;;;22.60;100.00;98222.88;4206868;28;20046;-74